createdAt,value
2023-01-15T00:02:28.587Z,99245.41
2023-01-15T00:04:56.650Z,99243.47
2023-01-15T00:07:24.725Z,99232.78
2023-01-15T00:09:53.510Z,99243.22
2023-01-15T00:12:21.486Z,99235.63
2023-01-15T00:14:50.797Z,99235.81
2023-01-15T00:17:18.746Z,99245.34
2023-01-15T00:19:47.908Z,99252.53
2023-01-15T00:22:17.095Z,99250.69
2023-01-15T00:25:02.414Z,99247.81
2023-01-15T00:27:56.562Z,99237.22
2023-01-15T00:30:44.794Z,99232.09
2023-01-15T00:33:12.820Z,99229.41
2023-01-15T00:35:40.994Z,99208.59
2023-01-15T00:38:10.771Z,99218.88
2023-01-15T00:40:43.269Z,99208.84
2023-01-15T00:43:11.166Z,99194.38
2023-01-15T00:45:41.384Z,99193.28
2023-01-15T00:48:09.329Z,99198.75
2023-01-15T00:50:37.289Z,99199.34
2023-01-15T00:53:05.311Z,99208.19
2023-01-15T00:55:33.219Z,99214.47
2023-01-15T00:58:01.238Z,99209.69
2023-01-15T01:00:29.352Z,99202.44
2023-01-15T01:02:59.307Z,99197.31
2023-01-15T01:05:27.238Z,99197.31
2023-01-15T01:07:55.183Z,99178.97
2023-01-15T01:10:23.357Z,99185.38
2023-01-15T01:12:52.139Z,99197.69
2023-01-15T01:15:20.979Z,99198.88
2023-01-15T01:17:49.313Z,99189.19
2023-01-15T01:20:20.123Z,99189.63
2023-01-15T01:22:50.114Z,99191.69
2023-01-15T01:25:18.109Z,99191.69
2023-01-15T01:27:46.589Z,99202.91
2023-01-15T01:30:16.054Z,99209.03
2023-01-15T01:32:46.656Z,99197.94
2023-01-15T01:35:14.540Z,99191.53
2023-01-15T01:37:44.018Z,99195.44
2023-01-15T01:40:13.212Z,99184.31
2023-01-15T01:42:41.081Z,99162.16
2023-01-15T01:45:24.843Z,99170.47
2023-01-15T01:47:55.901Z,99165.13
2023-01-15T01:50:25.678Z,99177.38
2023-01-15T01:52:59.261Z,99181.25
2023-01-15T01:55:30.374Z,99180.63
2023-01-15T01:58:04.116Z,99182.44
2023-01-15T02:00:38.273Z,99187.63
2023-01-15T02:03:11.690Z,99191.72
2023-01-15T02:05:45.074Z,99179.91
2023-01-15T02:08:17.841Z,99172.22
2023-01-15T02:10:52.558Z,99174.91
2023-01-15T02:13:29.513Z,99184.22
2023-01-15T02:16:07.900Z,99182.72
2023-01-15T02:18:44.590Z,99176.72
2023-01-15T02:21:25.574Z,99180.00
2023-01-15T02:24:14.573Z,99172.91
2023-01-15T02:27:16.471Z,99185.22
2023-01-15T02:29:55.627Z,99173.69
2023-01-15T02:32:35.196Z,99179.06
2023-01-15T02:35:11.446Z,99181.75
2023-01-15T02:37:47.730Z,99178.63
2023-01-15T02:40:19.216Z,99180.47
2023-01-15T02:42:51.016Z,99173.81
2023-01-15T02:45:27.111Z,99166.16
2023-01-15T02:48:01.782Z,99173.56
2023-01-15T02:50:38.987Z,99159.78
2023-01-15T02:53:15.832Z,99162.00
2023-01-15T02:55:49.894Z,99160.13
2023-01-15T02:58:29.393Z,99159.78
2023-01-15T03:01:06.990Z,99170.69
2023-01-15T03:03:43.177Z,99171.50
2023-01-15T03:06:20.666Z,99169.03
2023-01-15T03:08:50.632Z,99162.00
2023-01-15T03:11:21.241Z,99164.50
2023-01-15T03:14:07.745Z,99164.50
2023-01-15T03:16:46.159Z,99163.25
2023-01-15T03:19:25.621Z,99155.41
2023-01-15T03:22:01.030Z,99157.03
2023-01-15T03:24:38.727Z,99166.53
2023-01-15T03:27:10.323Z,99167.13
2023-01-15T03:29:44.094Z,99165.91
2023-01-15T03:32:12.370Z,99164.00
2023-01-15T03:34:47.530Z,99165.25
2023-01-15T03:37:16.064Z,99170.88
2023-01-15T03:39:44.765Z,99172.78
2023-01-15T03:42:30.989Z,99159.81
2023-01-15T03:45:12.481Z,99161.81
2023-01-15T03:47:59.469Z,99181.25
2023-01-15T03:50:40.082Z,99193.63
2023-01-15T03:53:16.848Z,99223.84
2023-01-15T03:55:55.259Z,99226.41
2023-01-15T03:58:30.332Z,99230.63
2023-01-15T04:01:04.807Z,99228.16
2023-01-15T04:03:38.492Z,99229.66
2023-01-15T04:06:08.653Z,99236.94
2023-01-15T04:08:41.803Z,99257.00
2023-01-15T04:11:10.206Z,99282.84
2023-01-15T04:13:38.215Z,99281.72
2023-01-15T04:16:08.601Z,99283.66
2023-01-15T04:18:36.635Z,99293.94
2023-01-15T04:21:05.564Z,99303.09
2023-01-15T04:23:33.574Z,99303.03
2023-01-15T04:26:01.542Z,99317.28
2023-01-15T04:28:29.560Z,99333.66
2023-01-15T04:30:59.783Z,99321.34
2023-01-15T04:33:29.238Z,99330.22
2023-01-15T04:36:00.269Z,99315.53
2023-01-15T04:38:28.471Z,99312.22
2023-01-15T04:41:13.648Z,99325.75
2023-01-15T04:43:58.954Z,99333.63
2023-01-15T04:46:26.992Z,99341.63
2023-01-15T04:48:56.401Z,99338.13
2023-01-15T04:51:24.530Z,99338.13
2023-01-15T04:53:52.603Z,99335.94
2023-01-15T04:56:20.824Z,99332.78
2023-01-15T04:58:48.784Z,99333.78
2023-01-15T05:01:19.267Z,99330.94
2023-01-15T05:03:47.321Z,99335.28
2023-01-15T05:06:18.480Z,99335.78
2023-01-15T05:08:46.635Z,99335.97
2023-01-15T05:11:14.611Z,99333.63
2023-01-15T05:13:42.596Z,99339.94
2023-01-15T05:16:14.461Z,99342.13
2023-01-15T05:18:43.216Z,99339.75
2023-01-15T05:21:20.629Z,99328.09
2023-01-15T05:23:49.897Z,99334.59
2023-01-15T05:26:18.478Z,99327.59
2023-01-15T05:28:47.008Z,99325.59
2023-01-15T05:31:18.300Z,99328.09
2023-01-15T05:33:47.583Z,99330.44
2023-01-15T05:36:20.807Z,99327.75
2023-01-15T05:38:48.918Z,99331.25
2023-01-15T05:41:36.747Z,99323.44
2023-01-15T05:44:07.208Z,99333.78
2023-01-15T05:46:37.519Z,99331.59
2023-01-15T05:49:11.373Z,99320.91
2023-01-15T05:51:41.345Z,99327.94
2023-01-15T05:54:14.922Z,99332.09
2023-01-15T05:56:45.485Z,99319.91
2023-01-15T05:59:17.620Z,99313.38
2023-01-15T06:01:46.385Z,99307.91
2023-01-15T06:04:15.822Z,99307.56
2023-01-15T06:06:45.410Z,99307.22
2023-01-15T06:09:13.216Z,99308.88
2023-01-15T06:11:41.949Z,99300.22
2023-01-15T06:14:11.596Z,99285.03
2023-01-15T06:16:41.169Z,99282.34
2023-01-15T06:19:15.039Z,99297.84
2023-01-15T06:21:44.631Z,99295.53
2023-01-15T06:24:17.970Z,99303.19
2023-01-15T06:26:45.918Z,99295.53
2023-01-15T06:29:17.565Z,99299.88
2023-01-15T06:31:46.152Z,99313.72
2023-01-15T06:34:14.223Z,99307.22
2023-01-15T06:36:42.177Z,99316.41
2023-01-15T06:39:11.509Z,99321.75
2023-01-15T06:41:56.796Z,99327.25
2023-01-15T06:44:42.544Z,99333.28
2023-01-15T06:47:23.012Z,99327.59
2023-01-15T06:49:54.701Z,99333.94
2023-01-15T06:52:23.187Z,99346.28
2023-01-15T06:54:53.207Z,99335.94
2023-01-15T06:57:21.884Z,99350.44
2023-01-15T06:59:51.153Z,99340.44
2023-01-15T07:02:19.812Z,99333.63
2023-01-15T07:04:48.984Z,99341.78
2023-01-15T07:07:18.578Z,99351.47
2023-01-15T07:09:46.552Z,99348.28
2023-01-15T07:12:16.125Z,99356.31
2023-01-15T07:14:44.166Z,99351.97
2023-01-15T07:17:12.289Z,99340.13
2023-01-15T07:19:40.447Z,99341.44
2023-01-15T07:22:10.736Z,99340.28
2023-01-15T07:24:38.955Z,99350.44
2023-01-15T07:27:07.756Z,99342.44
2023-01-15T07:29:37.159Z,99347.78
2023-01-15T07:32:05.690Z,99353.78
2023-01-15T07:34:33.679Z,99360.66
2023-01-15T07:37:01.748Z,99359.31
2023-01-15T07:39:31.610Z,99364.13
2023-01-15T07:42:16.805Z,99352.31
2023-01-15T07:45:03.923Z,99354.63
2023-01-15T07:47:49.824Z,99359.81
2023-01-15T07:50:23.130Z,99369.63
2023-01-15T07:52:53.165Z,99364.28
2023-01-15T07:55:22.345Z,99374.31
2023-01-15T07:57:50.396Z,99366.97
2023-01-15T08:00:23.447Z,99372.66
2023-01-15T08:02:51.454Z,99359.31
2023-01-15T08:05:20.406Z,99381.66
2023-01-15T08:07:49.103Z,99382.69
2023-01-15T08:10:17.265Z,99379.66
2023-01-15T08:13:02.606Z,99359.47
2023-01-15T08:15:36.084Z,99351.09
2023-01-15T08:18:04.962Z,99357.28
2023-01-15T08:20:32.928Z,99341.44
2023-01-15T08:23:02.591Z,99338.59
2023-01-15T08:25:30.340Z,99342.59
2023-01-15T08:28:03.452Z,99351.09
2023-01-15T08:30:32.819Z,99352.09
2023-01-15T08:33:03.102Z,99365.28
2023-01-15T08:35:31.170Z,99367.31
2023-01-15T08:37:59.168Z,99368.78
2023-01-15T08:40:27.091Z,99363.59
2023-01-15T08:42:56.595Z,99369.94
2023-01-15T08:45:24.759Z,99378.97
2023-01-15T08:47:58.234Z,99378.28
2023-01-15T08:50:26.183Z,99379.97
2023-01-15T08:52:54.147Z,99382.81
2023-01-15T08:55:22.096Z,99372.44
2023-01-15T08:57:50.124Z,99366.22
2023-01-15T09:00:19.417Z,99372.94
2023-01-15T09:02:49.900Z,99376.44
2023-01-15T09:05:19.447Z,99395.44
2023-01-15T09:07:47.622Z,99387.47
2023-01-15T09:10:16.939Z,99391.44
2023-01-15T09:12:44.896Z,99393.13
2023-01-15T09:15:12.795Z,99394.06
2023-01-15T09:17:41.809Z,99387.75
2023-01-15T09:20:13.205Z,99399.41
2023-01-15T09:22:43.119Z,99400.97
2023-01-15T09:25:11.279Z,99391.41
2023-01-15T09:27:39.448Z,99393.25
2023-01-15T09:30:13.588Z,99400.09
2023-01-15T09:32:41.525Z,99401.47
2023-01-15T09:35:10.463Z,99404.28
2023-01-15T09:37:38.530Z,99402.75
2023-01-15T09:40:17.828Z,99412.13
2023-01-15T09:42:57.431Z,99409.09
2023-01-15T09:45:32.411Z,99409.94
2023-01-15T09:48:24.712Z,99414.41
2023-01-15T09:51:08.148Z,99408.41
2023-01-15T09:53:59.571Z,99400.88
2023-01-15T09:56:33.412Z,99401.38
2023-01-15T09:59:13.018Z,99415.88
2023-01-15T10:01:41.147Z,99415.19
2023-01-15T10:04:22.217Z,99409.84
2023-01-15T10:07:01.300Z,99401.66
2023-01-15T10:09:37.504Z,99400.97
2023-01-15T10:12:39.984Z,99400.63
2023-01-15T10:15:21.237Z,99407.47
2023-01-15T10:17:53.462Z,99397.44
2023-01-15T10:20:49.746Z,99391.69
2023-01-15T10:23:40.990Z,99394.91
2023-01-15T10:26:18.659Z,99407.97
2023-01-15T10:29:13.048Z,99393.38
2023-01-15T10:31:55.621Z,99397.72
2023-01-15T10:34:52.969Z,99392.03
2023-01-15T10:37:32.468Z,99391.34
2023-01-15T10:40:28.828Z,99400.03
2023-01-15T10:43:10.266Z,99396.19
2023-01-15T10:45:46.833Z,99402.03
2023-01-15T10:48:29.450Z,99399.47
2023-01-15T10:51:02.080Z,99397.16
2023-01-15T10:53:38.393Z,99397.97
2023-01-15T10:56:17.270Z,99398.22
2023-01-15T10:58:52.426Z,99403.88
2023-01-15T11:01:27.007Z,99406.69
2023-01-15T11:03:55.696Z,99401.63
2023-01-15T11:06:25.418Z,99410.78
2023-01-15T11:09:11.977Z,99416.97
2023-01-15T11:12:04.338Z,99405.06
2023-01-15T11:14:55.249Z,99409.72
2023-01-15T11:17:46.748Z,99421.25
2023-01-15T11:20:29.027Z,99407.97
2023-01-15T11:22:58.639Z,99407.19
2023-01-15T11:25:30.227Z,99405.84
2023-01-15T11:28:01.217Z,99405.34
2023-01-15T11:30:32.169Z,99407.38
2023-01-15T11:33:04.691Z,99404.53
2023-01-15T11:35:34.190Z,99410.22
2023-01-15T11:38:08.581Z,99415.22
2023-01-15T11:40:36.489Z,99405.59
2023-01-15T11:43:21.793Z,99408.75
2023-01-15T11:46:09.694Z,99398.56
2023-01-15T11:49:05.880Z,99403.22
2023-01-15T11:51:47.888Z,99395.38
2023-01-15T11:54:17.468Z,99392.88
2023-01-15T11:56:47.336Z,99393.81
2023-01-15T11:59:20.826Z,99396.50
2023-01-15T12:01:59.147Z,99401.06
2023-01-15T12:04:40.069Z,99406.88
2023-01-15T12:07:14.862Z,99397.22
2023-01-15T12:10:12.527Z,99392.72
2023-01-15T12:12:58.388Z,99388.88
2023-01-15T12:15:51.414Z,99392.53
2023-01-15T12:18:45.731Z,99394.91
2023-01-15T12:21:43.670Z,99392.44
2023-01-15T12:24:59.110Z,99404.94
2023-01-15T12:27:53.570Z,99399.00
2023-01-15T12:30:33.616Z,99394.84
2023-01-15T12:33:19.927Z,99384.66
2023-01-15T12:35:57.728Z,99380.03
2023-01-15T12:38:43.491Z,99382.59
2023-01-15T12:41:17.070Z,99385.09
2023-01-15T12:44:09.461Z,99386.75
2023-01-15T12:46:44.150Z,99370.97
2023-01-15T12:49:32.797Z,99364.25
2023-01-15T12:52:08.348Z,99369.50
2023-01-15T12:54:48.631Z,99374.13
2023-01-15T12:57:29.159Z,99378.66
2023-01-15T13:00:03.875Z,99372.66
2023-01-15T13:02:52.307Z,99387.47
2023-01-15T13:05:28.232Z,99386.44
2023-01-15T13:08:04.698Z,99388.41
2023-01-15T13:10:36.497Z,99379.16
2023-01-15T13:13:17.591Z,99384.66
2023-01-15T13:16:04.165Z,99388.78
2023-01-15T13:18:48.013Z,99378.38
2023-01-15T13:21:20.245Z,99383.75
2023-01-15T13:24:14.199Z,99384.97
2023-01-15T13:27:05.266Z,99376.38
2023-01-15T13:29:51.484Z,99379.78
2023-01-15T13:32:23.924Z,99373.41
2023-01-15T13:34:58.867Z,99366.88
2023-01-15T13:37:31.338Z,99374.91
2023-01-15T13:40:05.635Z,99384.13
2023-01-15T13:42:37.044Z,99379.31
2023-01-15T13:45:28.558Z,99366.09
2023-01-15T13:48:06.650Z,99364.97
2023-01-15T13:50:40.726Z,99368.00
2023-01-15T13:53:19.653Z,99380.19
2023-01-15T13:55:56.200Z,99380.00
2023-01-15T13:58:29.255Z,99388.22
2023-01-15T14:01:23.406Z,99397.28
2023-01-15T14:04:02.730Z,99395.38
2023-01-15T14:06:47.618Z,99398.56
2023-01-15T14:09:31.807Z,99407.63
2023-01-15T14:12:19.307Z,99403.44
2023-01-15T14:15:09.598Z,99428.53
2023-01-15T14:18:09.493Z,99421.00
2023-01-15T14:20:55.454Z,99428.00
2023-01-15T14:23:45.803Z,99440.22
2023-01-15T14:26:27.516Z,99428.84
2023-01-15T14:29:22.172Z,99439.06
2023-01-15T14:32:09.805Z,99452.94
2023-01-15T14:34:38.494Z,99444.91
2023-01-15T14:37:24.262Z,99454.09
2023-01-15T14:39:56.036Z,99460.78
2023-01-15T14:42:51.540Z,99470.34
2023-01-15T14:45:29.231Z,99471.50
2023-01-15T14:48:01.239Z,99482.09
2023-01-15T14:50:42.067Z,99478.91
2023-01-15T14:53:31.895Z,99483.97
2023-01-15T14:56:15.015Z,99494.00
2023-01-15T14:58:55.031Z,99480.97
2023-01-15T15:01:47.657Z,99475.47
2023-01-15T15:04:40.468Z,99466.00
2023-01-15T15:07:15.555Z,99468.34
2023-01-15T15:09:48.716Z,99479.72
2023-01-15T15:12:35.895Z,99474.22
2023-01-15T15:15:17.923Z,99486.97
2023-01-15T15:18:02.634Z,99492.31
2023-01-15T15:20:57.025Z,99478.41
2023-01-15T15:23:40.770Z,99493.97
2023-01-15T15:26:24.992Z,99485.94
2023-01-15T15:29:01.280Z,99497.00
2023-01-15T15:31:36.952Z,99481.63
2023-01-15T15:34:08.323Z,99486.47
2023-01-15T15:36:39.857Z,99486.47
2023-01-15T15:39:21.455Z,99473.59
2023-01-15T15:42:11.749Z,99481.78
2023-01-15T15:45:09.696Z,99474.78
2023-01-15T15:47:59.131Z,99477.63
2023-01-15T15:50:31.233Z,99475.78
2023-01-15T15:53:04.485Z,99469.78
2023-01-15T15:55:41.691Z,99472.44
2023-01-15T15:58:22.192Z,99462.25
2023-01-15T16:00:51.843Z,99478.13
2023-01-15T16:03:22.181Z,99475.47
2023-01-15T16:05:59.326Z,99461.25
2023-01-15T16:08:30.111Z,99463.78
2023-01-15T16:11:03.531Z,99460.63
2023-01-15T16:13:37.632Z,99452.59
2023-01-15T16:16:14.127Z,99455.78
2023-01-15T16:18:46.695Z,99450.28
2023-01-15T16:21:21.425Z,99460.09
2023-01-15T16:23:59.825Z,99461.94
2023-01-15T16:26:35.885Z,99461.28
2023-01-15T16:29:07.657Z,99462.13
2023-01-15T16:31:37.457Z,99455.44
2023-01-15T16:34:07.190Z,99462.13
2023-01-15T16:36:41.938Z,99458.44
2023-01-15T16:39:24.127Z,99453.75
2023-01-15T16:41:57.537Z,99461.78
2023-01-15T16:44:38.976Z,99453.44
2023-01-15T16:47:08.068Z,99450.94
2023-01-15T16:49:36.120Z,99461.94
2023-01-15T16:52:24.931Z,99445.09
2023-01-15T16:54:56.591Z,99452.13
2023-01-15T16:57:34.669Z,99451.59
2023-01-15T17:00:08.807Z,99452.97
2023-01-15T17:02:46.717Z,99459.97
2023-01-15T17:05:26.551Z,99468.31
2023-01-15T17:07:56.281Z,99454.28
2023-01-15T17:10:31.243Z,99460.13
2023-01-15T17:13:00.031Z,99454.63
2023-01-15T17:15:45.886Z,99461.31
2023-01-15T17:18:29.579Z,99464.44
2023-01-15T17:20:59.359Z,99464.44
2023-01-15T17:23:36.530Z,99457.28
2023-01-15T17:26:07.721Z,99457.63
2023-01-15T17:28:35.800Z,99464.44
2023-01-15T17:31:04.529Z,99462.78
2023-01-15T17:33:32.691Z,99459.63
2023-01-15T17:36:03.677Z,99462.13
2023-01-15T17:38:31.595Z,99467.47
2023-01-15T17:41:07.040Z,99465.81
2023-01-15T17:43:36.432Z,99465.63
2023-01-15T17:46:04.485Z,99477.47
2023-01-15T17:48:33.066Z,99473.47
2023-01-15T17:51:04.199Z,99479.81
2023-01-15T17:53:36.069Z,99473.31
2023-01-15T17:56:22.016Z,99482.31
2023-01-15T17:59:08.917Z,99484.66
2023-01-15T18:01:58.810Z,99472.31
2023-01-15T18:04:50.695Z,99487.00
2023-01-15T18:07:25.739Z,99488.31
2023-01-15T18:09:56.325Z,99487.19
2023-01-15T18:12:24.553Z,99480.47
2023-01-15T18:14:54.243Z,99483.16
2023-01-15T18:17:22.098Z,99486.50
2023-01-15T18:19:50.189Z,99489.69
2023-01-15T18:22:18.918Z,99476.81
2023-01-15T18:24:48.045Z,99481.31
2023-01-15T18:27:15.967Z,99482.34
2023-01-15T18:29:44.269Z,99482.47
2023-01-15T18:32:13.662Z,99477.47
2023-01-15T18:34:41.727Z,99493.84
2023-01-15T18:37:09.687Z,99485.47
2023-01-15T18:39:38.086Z,99485.47
2023-01-15T18:42:31.434Z,99490.81
2023-01-15T18:45:20.907Z,99492.00
2023-01-15T18:47:53.334Z,99489.34
2023-01-15T18:50:29.119Z,99489.16
2023-01-15T18:53:02.508Z,99484.34
2023-01-15T18:55:37.472Z,99486.00
2023-01-15T18:58:10.185Z,99493.53
2023-01-15T19:00:42.212Z,99486.16
2023-01-15T19:03:18.421Z,99470.97
2023-01-15T19:05:51.321Z,99493.53
2023-01-15T19:08:27.724Z,99489.66
2023-01-15T19:10:59.742Z,99488.19
2023-01-15T19:13:41.589Z,99476.16
2023-01-15T19:16:35.890Z,99489.16
2023-01-15T19:19:12.388Z,99494.03
2023-01-15T19:21:40.469Z,99492.34
2023-01-15T19:24:09.035Z,99490.69
2023-01-15T19:26:40.046Z,99485.84
2023-01-15T19:29:08.238Z,99487.16
2023-01-15T19:31:40.525Z,99483.16
2023-01-15T19:34:32.812Z,99489.16
2023-01-15T19:37:01.074Z,99488.19
2023-01-15T19:39:30.431Z,99497.50
2023-01-15T19:42:14.927Z,99493.84
2023-01-15T19:45:01.911Z,99490.16
2023-01-15T19:47:53.758Z,99499.38
2023-01-15T19:50:32.583Z,99499.69
2023-01-15T19:53:09.603Z,99501.53
2023-01-15T19:55:42.315Z,99489.84
2023-01-15T19:58:16.226Z,99501.19
2023-01-15T20:00:50.285Z,99507.38
2023-01-15T20:03:22.565Z,99504.19
2023-01-15T20:05:54.299Z,99505.84
2023-01-15T20:08:24.081Z,99504.72
2023-01-15T20:10:53.365Z,99515.22
2023-01-15T20:13:42.671Z,99508.22
2023-01-15T20:16:14.979Z,99507.22
2023-01-15T20:18:44.364Z,99516.91
2023-01-15T20:21:18.081Z,99511.72
2023-01-15T20:23:46.726Z,99520.91
2023-01-15T20:26:17.169Z,99521.25
2023-01-15T20:28:47.527Z,99520.22
2023-01-15T20:31:18.030Z,99517.06
2023-01-15T20:33:46.500Z,99530.25
2023-01-15T20:36:16.720Z,99523.41
2023-01-15T20:38:44.620Z,99527.91
2023-01-15T20:41:30.501Z,99530.91
2023-01-15T20:44:15.739Z,99525.56
2023-01-15T20:46:43.753Z,99526.59
2023-01-15T20:49:28.770Z,99522.06
2023-01-15T20:51:58.840Z,99522.41
2023-01-15T20:54:27.661Z,99521.91
2023-01-15T20:56:55.615Z,99519.06
2023-01-15T20:59:23.821Z,99519.41
2023-01-15T21:01:54.111Z,99524.06
2023-01-15T21:04:23.059Z,99517.88
2023-01-15T21:06:51.120Z,99522.06
2023-01-15T21:09:20.477Z,99522.41
2023-01-15T21:11:48.410Z,99521.22
2023-01-15T21:14:16.352Z,99524.91
2023-01-15T21:16:44.426Z,99527.25
2023-01-15T21:19:12.415Z,99519.22
2023-01-15T21:21:40.545Z,99524.41
2023-01-15T21:24:08.752Z,99522.88
2023-01-15T21:26:38.344Z,99514.53
2023-01-15T21:29:06.099Z,99525.56
2023-01-15T21:31:34.080Z,99522.88
2023-01-15T21:34:02.150Z,99535.75
2023-01-15T21:36:30.069Z,99540.09
2023-01-15T21:38:59.022Z,99533.72
2023-01-15T21:41:42.502Z,99533.22
2023-01-15T21:44:32.096Z,99534.41
2023-01-15T21:47:01.115Z,99536.06
2023-01-15T21:49:31.569Z,99533.38
2023-01-15T21:52:00.472Z,99534.19
2023-01-15T21:54:28.925Z,99538.56
2023-01-15T21:56:57.360Z,99537.22
2023-01-15T21:59:27.234Z,99538.56
2023-01-15T22:01:56.653Z,99543.91
2023-01-15T22:04:26.882Z,99541.56
2023-01-15T22:06:55.699Z,99540.03
2023-01-15T22:09:24.743Z,99528.84
2023-01-15T22:11:52.819Z,99529.19
2023-01-15T22:14:27.756Z,99534.19
2023-01-15T22:16:57.619Z,99537.03
2023-01-15T22:19:28.417Z,99542.06
2023-01-15T22:21:59.232Z,99535.03
2023-01-15T22:24:29.008Z,99523.84
2023-01-15T22:26:57.807Z,99526.69
2023-01-15T22:29:29.919Z,99526.19
2023-01-15T22:31:58.183Z,99520.50
2023-01-15T22:34:28.947Z,99536.22
2023-01-15T22:36:57.407Z,99535.03
2023-01-15T22:39:28.302Z,99530.22
2023-01-15T22:42:14.034Z,99528.69
2023-01-15T22:44:45.016Z,99540.22
2023-01-15T22:47:13.657Z,99536.03
2023-01-15T22:49:41.588Z,99534.19
2023-01-15T22:52:09.519Z,99535.22
2023-01-15T22:54:37.686Z,99532.38
2023-01-15T22:57:06.113Z,99531.84
2023-01-15T22:59:34.033Z,99531.00
2023-01-15T23:02:03.484Z,99529.19
2023-01-15T23:04:31.720Z,99535.16
2023-01-15T23:06:59.700Z,99537.13
2023-01-15T23:09:27.669Z,99539.78
2023-01-15T23:11:55.611Z,99536.09
2023-01-15T23:14:23.679Z,99538.94
2023-01-15T23:16:51.937Z,99529.78
2023-01-15T23:19:21.501Z,99528.41
2023-01-15T23:21:49.345Z,99533.06
2023-01-15T23:24:17.861Z,99533.06
2023-01-15T23:26:45.910Z,99537.44
2023-01-15T23:29:13.790Z,99540.22
2023-01-15T23:31:41.781Z,99525.56
2023-01-15T23:34:10.491Z,99531.06
2023-01-15T23:36:40.592Z,99535.88
2023-01-15T23:39:09.061Z,99538.06
2023-01-15T23:41:54.643Z,99529.06
2023-01-15T23:44:40.286Z,99533.06
2023-01-15T23:47:09.384Z,99528.38
2023-01-15T23:49:37.601Z,99529.06
2023-01-15T23:52:07.011Z,99534.09
2023-01-15T23:54:34.979Z,99523.75
2023-01-15T23:57:03.458Z,99531.94
2023-01-15T23:59:31.522Z,99528.09
